Spanish Lake, Missouri
Current Conditions -  °F | °C
As of 4:35 AM on Friday 21 Nov 2014 (Local Time) from KALN Reporting Station
Clear Clear  
Wind Chill: 13°   Ceiling: Unl
Heat Index: 20°   Visibility: 10mi
Dew Point: 13°   Wind: 5mph
Humidity: 74%   Direction: 90°E
Pressure: 30.4"   Gusts: NA
Location:  38.7995°N, 90.1891°W
Report Text: KALN 211035Z AUTO 09004KT 10SM CLR M07/M11 A3040 RMK AO2 T10671106
Loading
Personal Weather Stations






























Interactive Weather Map New forecast layout! Learn more

10-Day Weather Forecast

Advertisements
Track Severe Weather on mobile